Time;durP1;ratioP1;P1;durP2;ratioP2;P2;SDS_P1;SDS_P2;PMS_P1;PMS_P2;Temp;Humidity;BMP_temperature;BMP_pressure;BME280_temperature;BME280_humidity;BME280_pressure;Samples;Min_cycle;Max_cycle;Signal;HPM_P1;HPM_P2
2021/03/30 00:01:58;;;;;;;16.83;6.40;;;10.70;19.60;;;;;;5037959;28;20429;-77
2021/03/30 00:04:24;;;;;;;8.90;5.85;;;10.70;19.40;;;;;;5041999;28;20406;-78
2021/03/30 00:06:50;;;;;;;7.90;6.20;;;10.70;20.00;;;;;;5038963;28;20394;-77
2021/03/30 00:09:17;;;;;;;9.75;5.80;;;10.60;20.00;;;;;;5038705;28;20406;-78
2021/03/30 00:11:42;;;;;;;9.40;6.13;;;10.60;20.20;;;;;;5038087;28;20390;-76
2021/03/30 00:14:09;;;;;;;12.13;6.53;;;10.50;20.20;;;;;;5036714;28;20791;-76
2021/03/30 00:16:35;;;;;;;13.38;6.68;;;10.50;20.00;;;;;;5024204;28;20909;-76
2021/03/30 00:19:00;;;;;;;13.70;6.50;;;10.50;20.00;;;;;;5033595;28;20398;-78
2021/03/30 00:21:26;;;;;;;9.17;6.20;;;10.40;20.30;;;;;;5038474;28;20812;-78
2021/03/30 00:23:52;;;;;;;14.18;5.90;;;10.40;20.70;;;;;;5035905;28;20447;-78
2021/03/30 00:26:18;;;;;;;9.80;6.00;;;10.40;20.70;;;;;;5036883;28;20752;-77
2021/03/30 00:28:44;;;;;;;11.63;6.22;;;10.40;20.00;;;;;;5038470;28;20399;-77
2021/03/30 00:31:09;;;;;;;8.90;6.00;;;10.50;21.40;;;;;;5038190;28;20398;-77
2021/03/30 00:33:35;;;;;;;10.03;6.30;;;10.40;20.60;;;;;;5037929;28;20399;-78
2021/03/30 00:36:01;;;;;;;9.07;5.80;;;10.30;21.20;;;;;;5036100;28;20417;-77
2021/03/30 00:38:26;;;;;;;13.10;6.13;;;10.30;21.50;;;;;;5037303;28;20425;-78
2021/03/30 00:40:52;;;;;;;9.93;6.40;;;10.30;22.00;;;;;;5037444;28;20456;-78
2021/03/30 00:43:19;;;;;;;9.30;6.03;;;10.30;22.10;;;;;;5038150;28;20468;-76
2021/03/30 00:45:44;;;;;;;14.27;6.18;;;10.20;21.70;;;;;;5019982;28;20443;-78
2021/03/30 00:48:21;;;;;;;12.40;6.43;;;10.10;22.40;;;;;;5038130;28;20394;-77
2021/03/30 00:50:46;;;;;;;8.38;6.00;;;10.10;22.80;;;;;;5036076;28;20927;-78
2021/03/30 00:53:12;;;;;;;11.63;6.00;;;10.00;22.40;;;;;;5038317;28;20500;-77
2021/03/30 00:55:38;;;;;;;9.20;6.03;;;10.00;21.80;;;;;;5039607;28;20510;-77
2021/03/30 00:58:03;;;;;;;12.30;6.78;;;10.00;22.70;;;;;;5049726;28;20421;-78
2021/03/30 01:00:29;;;;;;;10.37;6.60;;;10.00;24.20;;;;;;5040479;28;20399;-78
2021/03/30 01:02:55;;;;;;;8.57;6.40;;;9.90;23.40;;;;;;5018676;28;20405;-78
2021/03/30 01:05:20;;;;;;;12.10;6.50;;;9.80;23.50;;;;;;5017514;28;20848;-77
2021/03/30 01:07:55;;;;;;;16.00;6.53;;;9.80;23.20;;;;;;5032807;28;20395;-78
2021/03/30 01:10:27;;;;;;;10.05;6.47;;;9.80;23.90;;;;;;5039358;28;20375;-77
2021/03/30 01:13:36;;;;;;;8.88;6.10;;;9.70;24.90;;;;;;5039175;28;20405;-77
2021/03/30 01:16:10;;;;;;;14.75;6.47;;;9.70;25.10;;;;;;5033266;28;20470;-78
2021/03/30 01:18:43;;;;;;;10.27;6.18;;;9.60;25.00;;;;;;5020581;28;20424;-77
2021/03/30 01:21:27;;;;;;;12.23;7.05;;;9.60;24.70;;;;;;5024893;28;20414;-78
2021/03/30 01:24:22;;;;;;;14.32;7.15;;;9.50;25.60;;;;;;5037951;28;20411;-78
2021/03/30 01:26:54;;;;;;;13.98;6.60;;;9.50;26.50;;;;;;5033301;28;20479;-78
2021/03/30 01:29:21;;;;;;;9.90;6.43;;;9.50;26.80;;;;;;5021708;28;20404;-79
2021/03/30 01:32:19;;;;;;;14.65;6.55;;;9.50;26.40;;;;;;5015505;28;20385;-78
2021/03/30 01:34:47;;;;;;;13.07;6.28;;;9.50;26.10;;;;;;5015201;28;20484;-78
2021/03/30 01:37:15;;;;;;;11.27;6.68;;;9.50;26.50;;;;;;5037493;28;20399;-78
2021/03/30 01:39:44;;;;;;;11.02;6.90;;;9.60;25.90;;;;;;5036105;28;20404;-77
2021/03/30 01:42:11;;;;;;;12.10;6.85;;;9.60;25.80;;;;;;5026285;28;20721;-77
2021/03/30 01:44:39;;;;;;;13.90;6.50;;;9.60;24.70;;;;;;5045483;28;20415;-78
2021/03/30 01:47:05;;;;;;;11.88;6.80;;;9.60;25.60;;;;;;5038918;28;20430;-77
2021/03/30 01:49:33;;;;;;;18.20;7.13;;;9.60;25.50;;;;;;5040719;28;20470;-78
2021/03/30 01:51:58;;;;;;;12.98;7.85;;;9.70;24.10;;;;;;5037776;28;20850;-78
2021/03/30 01:54:25;;;;;;;12.27;7.22;;;9.70;25.00;;;;;;5024310;28;20416;-79
2021/03/30 01:56:55;;;;;;;11.23;6.50;;;9.70;25.10;;;;;;5024020;28;20381;-77
2021/03/30 01:59:22;;;;;;;10.52;6.35;;;9.70;25.30;;;;;;5024434;28;20392;-77
2021/03/30 02:01:48;;;;;;;14.20;6.63;;;9.60;25.00;;;;;;5021799;28;20836;-77
2021/03/30 02:04:15;;;;;;;9.55;6.35;;;9.60;24.60;;;;;;5024540;28;20415;-77
2021/03/30 02:06:44;;;;;;;11.40;6.32;;;9.70;24.00;;;;;;5042834;28;20379;-77
2021/03/30 02:09:16;;;;;;;10.60;6.68;;;9.60;24.50;;;;;;5041643;28;20426;-77
2021/03/30 02:11:56;;;;;;;13.93;6.30;;;9.50;25.20;;;;;;5042674;28;20379;-77
2021/03/30 02:14:22;;;;;;;13.98;6.72;;;9.40;25.50;;;;;;5037139;28;20410;-77
2021/03/30 02:16:57;;;;;;;9.73;5.70;;;9.40;25.60;;;;;;5041011;28;20406;-77
2021/03/30 02:19:50;;;;;;;11.38;5.82;;;9.40;25.20;;;;;;5041456;28;20399;-77
2021/03/30 02:22:47;;;;;;;10.55;6.32;;;9.50;25.20;;;;;;5046769;28;20683;-77
2021/03/30 02:25:13;;;;;;;11.93;6.30;;;9.50;24.80;;;;;;5047328;28;20498;-77
2021/03/30 02:27:41;;;;;;;11.93;6.40;;;9.50;24.50;;;;;;5043671;28;20752;-77
2021/03/30 02:30:09;;;;;;;14.55;5.97;;;9.60;24.40;;;;;;5029905;28;20405;-77
2021/03/30 02:32:39;;;;;;;11.98;6.00;;;9.60;26.10;;;;;;5026917;28;20834;-77
2021/03/30 02:35:06;;;;;;;12.00;6.00;;;9.50;25.90;;;;;;5037396;28;20402;-78
2021/03/30 02:37:34;;;;;;;9.27;6.13;;;9.50;24.50;;;;;;5038566;28;20417;-77
2021/03/30 02:40:03;;;;;;;12.25;6.50;;;9.50;24.30;;;;;;5032338;28;20400;-78
2021/03/30 02:42:30;;;;;;;10.23;5.70;;;9.40;25.30;;;;;;5026839;28;20408;-78
2021/03/30 02:44:56;;;;;;;10.43;5.43;;;9.30;26.30;;;;;;5025056;28;20420;-77
2021/03/30 02:47:23;;;;;;;12.65;5.80;;;9.30;26.10;;;;;;5027487;28;20461;-78
2021/03/30 02:49:51;;;;;;;11.68;5.97;;;9.30;26.50;;;;;;5024859;28;20825;-77
2021/03/30 02:52:18;;;;;;;9.90;5.70;;;9.40;24.60;;;;;;5028159;28;20432;-77
2021/03/30 02:54:44;;;;;;;10.35;6.63;;;9.30;24.80;;;;;;5032650;28;20392;-78
2021/03/30 02:57:14;;;;;;;12.57;5.60;;;9.30;25.90;;;;;;5034591;28;20397;-79
2021/03/30 02:59:40;;;;;;;9.75;5.40;;;9.30;26.20;;;;;;5064481;28;20959;-78
2021/03/30 03:02:06;;;;;;;9.60;6.05;;;9.30;25.10;;;;;;5056728;28;20831;-79
2021/03/30 03:04:32;;;;;;;10.20;5.80;;;9.30;24.90;;;;;;5039179;28;20407;-78
2021/03/30 03:07:02;;;;;;;9.65;5.90;;;9.30;24.80;;;;;;5054708;28;20386;-78
2021/03/30 03:09:29;;;;;;;11.10;6.07;;;9.20;25.80;;;;;;5034969;28;20404;-79
2021/03/30 03:11:55;;;;;;;9.93;5.72;;;9.20;25.80;;;;;;5036236;28;20775;-77
2021/03/30 03:14:23;;;;;;;13.13;5.60;;;9.10;26.50;;;;;;5035579;28;20392;-77
2021/03/30 03:16:49;;;;;;;11.82;5.55;;;9.00;26.30;;;;;;5027490;28;20399;-77
2021/03/30 03:19:16;;;;;;;18.88;7.05;;;9.10;25.70;;;;;;5035500;28;20633;-76
2021/03/30 03:21:42;;;;;;;9.07;5.47;;;9.10;26.60;;;;;;5035080;28;20880;-77
2021/03/30 03:24:10;;;;;;;9.07;5.82;;;9.10;26.80;;;;;;5035222;28;20453;-78
2021/03/30 03:26:38;;;;;;;8.40;5.35;;;9.00;27.20;;;;;;5020986;28;20480;-77
2021/03/30 03:29:17;;;;;;;12.60;6.30;;;9.10;26.80;;;;;;5035987;28;20407;-78
2021/03/30 03:31:44;;;;;;;13.13;6.25;;;9.10;26.80;;;;;;5037819;28;20459;-77
2021/03/30 03:34:13;;;;;;;12.65;6.30;;;9.20;26.20;;;;;;5047909;28;20746;-77
2021/03/30 03:36:42;;;;;;;13.50;6.15;;;9.20;25.50;;;;;;5031644;28;20403;-76
2021/03/30 03:39:10;;;;;;;12.97;5.97;;;9.10;25.40;;;;;;5038917;28;20398;-77
2021/03/30 03:41:35;;;;;;;9.63;5.80;;;9.10;25.90;;;;;;5052528;28;20394;-77
2021/03/30 03:44:01;;;;;;;11.73;6.20;;;9.00;26.50;;;;;;5047371;28;20457;-76
2021/03/30 03:46:27;;;;;;;12.68;6.40;;;9.00;26.10;;;;;;5041373;28;20379;-77
2021/03/30 03:48:53;;;;;;;8.97;5.70;;;9.00;26.20;;;;;;5034673;28;20387;-77
2021/03/30 03:51:19;;;;;;;12.97;5.70;;;9.00;26.60;;;;;;5030554;28;20919;-78
2021/03/30 03:53:52;;;;;;;10.45;6.35;;;8.90;27.40;;;;;;5017332;28;20480;-77
2021/03/30 03:56:33;;;;;;;9.93;5.80;;;8.90;27.00;;;;;;5031599;28;20522;-77
2021/03/30 03:59:05;;;;;;;10.95;6.40;;;8.90;26.20;;;;;;5051443;28;20389;-77
2021/03/30 04:01:48;;;;;;;14.63;6.20;;;8.80;27.00;;;;;;5049768;28;20449;-78
2021/03/30 04:04:24;;;;;;;12.30;6.70;;;8.80;27.40;;;;;;5033679;28;20450;-77
2021/03/30 04:06:59;;;;;;;13.63;6.45;;;8.70;28.20;;;;;;5016659;28;20388;-78
2021/03/30 04:09:27;;;;;;;13.80;6.40;;;8.60;28.20;;;;;;5019855;28;20394;-77
2021/03/30 04:11:54;;;;;;;10.38;6.40;;;8.50;29.30;;;;;;5034269;28;20402;-77
2021/03/30 04:14:20;;;;;;;11.02;6.40;;;8.40;29.60;;;;;;5051723;28;20391;-77
2021/03/30 04:16:47;;;;;;;11.67;6.90;;;8.40;29.40;;;;;;5043227;28;20392;-76
2021/03/30 04:19:14;;;;;;;9.85;6.05;;;8.40;30.10;;;;;;5030877;28;20411;-77
2021/03/30 04:21:40;;;;;;;12.02;6.40;;;8.40;30.40;;;;;;5029789;28;20741;-77
2021/03/30 04:24:08;;;;;;;14.68;6.30;;;8.40;30.40;;;;;;5034257;28;20402;-77
2021/03/30 04:26:35;;;;;;;11.43;7.45;;;8.40;30.50;;;;;;5033780;28;20383;-77
2021/03/30 04:29:02;;;;;;;9.98;6.68;;;8.30;30.60;;;;;;5036989;28;20401;-78
2021/03/30 04:31:27;;;;;;;12.30;6.68;;;8.40;30.00;;;;;;5022304;28;20788;-78
2021/03/30 04:33:53;;;;;;;11.60;6.45;;;8.20;30.80;;;;;;5038906;28;20474;-77
2021/03/30 04:36:19;;;;;;;11.57;6.35;;;8.20;31.90;;;;;;5034945;28;20414;-77
2021/03/30 04:38:44;;;;;;;10.57;6.10;;;8.10;31.00;;;;;;5040967;28;20459;-78
2021/03/30 04:41:10;;;;;;;14.77;7.00;;;8.00;31.80;;;;;;5016937;28;20391;-79
2021/03/30 04:43:36;;;;;;;13.93;6.57;;;8.00;32.30;;;;;;5033665;28;20395;-77
2021/03/30 04:46:01;;;;;;;12.90;6.90;;;8.00;33.30;;;;;;5036563;28;20395;-77
2021/03/30 04:48:27;;;;;;;9.50;5.90;;;8.00;33.20;;;;;;5039092;28;20433;-77
2021/03/30 04:50:53;;;;;;;13.43;6.60;;;7.90;33.90;;;;;;5035607;28;20387;-76
2021/03/30 04:53:19;;;;;;;12.70;6.60;;;7.90;33.90;;;;;;5035009;28;20398;-77
2021/03/30 04:55:45;;;;;;;12.23;6.27;;;7.90;34.00;;;;;;5034277;28;20383;-77
2021/03/30 04:58:10;;;;;;;12.10;6.80;;;7.80;34.00;;;;;;5041208;28;20906;-77
2021/03/30 05:00:36;;;;;;;11.93;6.13;;;7.80;34.10;;;;;;5029893;28;20489;-76
2021/03/30 05:03:01;;;;;;;12.48;7.30;;;7.80;33.70;;;;;;5033971;28;20399;-78
2021/03/30 05:05:27;;;;;;;14.48;6.70;;;7.70;34.50;;;;;;5036056;28;20516;-77
2021/03/30 05:07:53;;;;;;;11.98;7.38;;;7.70;35.20;;;;;;5033893;28;20399;-77
2021/03/30 05:10:19;;;;;;;10.88;6.90;;;7.60;36.00;;;;;;5032422;28;20848;-78
2021/03/30 05:12:44;;;;;;;14.30;7.47;;;7.50;37.90;;;;;;5034826;28;20459;-76
2021/03/30 05:15:11;;;;;;;13.50;7.80;;;7.50;37.60;;;;;;5038809;28;20422;-77
2021/03/30 05:17:37;;;;;;;10.98;7.10;;;7.50;37.80;;;;;;5049213;28;20867;-77
2021/03/30 05:20:04;;;;;;;9.43;7.10;;;7.40;38.10;;;;;;5045387;28;20456;-78
2021/03/30 05:22:30;;;;;;;12.88;7.00;;;7.40;38.20;;;;;;5039039;28;20417;-78
2021/03/30 05:24:56;;;;;;;13.95;7.75;;;7.40;38.70;;;;;;5035573;28;20779;-79
2021/03/30 05:27:21;;;;;;;14.60;8.23;;;7.40;39.20;;;;;;5035688;28;20477;-78
2021/03/30 05:29:47;;;;;;;11.37;7.90;;;7.40;39.40;;;;;;5034144;28;20756;-77
2021/03/30 05:32:14;;;;;;;13.30;7.53;;;7.40;39.00;;;;;;5035196;28;20402;-78
2021/03/30 05:34:41;;;;;;;13.60;7.60;;;7.40;38.40;;;;;;5034691;28;20895;-77
2021/03/30 05:37:07;;;;;;;13.10;8.05;;;7.40;38.80;;;;;;5035550;28;20886;-78
2021/03/30 05:39:33;;;;;;;12.40;7.30;;;7.50;38.60;;;;;;5026793;28;20403;-78
2021/03/30 05:41:59;;;;;;;12.73;7.60;;;7.40;39.10;;;;;;5036006;28;20413;-78
2021/03/30 05:44:27;;;;;;;14.10;7.63;;;7.40;38.90;;;;;;5033633;28;20469;-76
2021/03/30 05:47:15;;;;;;;13.38;7.93;;;7.50;38.50;;;;;;5033539;28;20383;-78
2021/03/30 05:49:42;;;;;;;17.25;8.77;;;7.50;38.70;;;;;;5024914;28;20845;-78
2021/03/30 05:52:16;;;;;;;13.55;7.63;;;7.60;39.10;;;;;;5026343;28;20397;-77
2021/03/30 05:54:45;;;;;;;20.00;11.65;;;7.60;38.80;;;;;;5031632;28;20440;-78
2021/03/30 05:57:13;;;;;;;62.70;35.65;;;7.70;38.00;;;;;;5035281;28;20428;-78
2021/03/30 05:59:41;;;;;;;46.17;28.27;;;7.80;39.50;;;;;;5044400;28;20402;-78
2021/03/30 06:02:19;;;;;;;21.90;11.95;;;7.90;38.90;;;;;;5034397;28;20405;-77
2021/03/30 06:04:46;;;;;;;39.55;24.55;;;8.10;36.80;;;;;;5034152;28;20429;-79
2021/03/30 06:07:11;;;;;;;16.83;7.72;;;8.20;38.40;;;;;;5033168;28;20410;-77
2021/03/30 06:09:40;;;;;;;14.77;8.10;;;8.20;36.20;;;;;;5031952;28;20409;-77
2021/03/30 06:12:06;;;;;;;13.82;7.88;;;8.10;34.90;;;;;;5040224;28;20401;-77
2021/03/30 06:14:45;;;;;;;13.32;7.40;;;8.10;34.90;;;;;;5035785;28;20415;-78
2021/03/30 06:17:13;;;;;;;14.85;8.10;;;8.20;33.80;;;;;;5034948;28;20383;-78
2021/03/30 06:19:55;;;;;;;16.05;8.00;;;8.20;34.50;;;;;;5033431;28;20992;-79
2021/03/30 06:22:23;;;;;;;19.02;7.80;;;8.20;33.50;;;;;;5035138;28;20884;-77
2021/03/30 06:24:51;;;;;;;12.68;7.50;;;8.30;33.30;;;;;;5034326;28;20438;-77
2021/03/30 06:27:21;;;;;;;13.27;8.00;;;8.40;33.70;;;;;;5033947;28;20398;-77
2021/03/30 06:29:48;;;;;;;14.25;7.60;;;8.40;32.90;;;;;;5033288;28;20413;-78
2021/03/30 06:32:16;;;;;;;19.73;8.23;;;8.60;32.10;;;;;;5030420;28;20412;-78
2021/03/30 06:34:44;;;;;;;14.77;8.03;;;8.70;31.60;;;;;;5032511;28;20395;-75
2021/03/30 06:37:28;;;;;;;17.30;8.07;;;8.80;30.30;;;;;;5030121;28;20398;-75
2021/03/30 06:39:59;;;;;;;16.88;7.90;;;8.90;29.00;;;;;;5031911;28;20390;-74
2021/03/30 06:42:30;;;;;;;13.88;7.70;;;9.10;28.10;;;;;;5036239;28;20395;-78
2021/03/30 06:44:55;;;;;;;14.13;7.83;;;9.30;26.80;;;;;;5035895;28;20465;-75
2021/03/30 06:47:23;;;;;;;17.33;8.60;;;9.40;26.90;;;;;;5029797;28;20830;-75
2021/03/30 06:50:04;;;;;;;24.20;9.07;;;9.50;27.80;;;;;;5029065;28;20446;-75
2021/03/30 06:52:35;;;;;;;17.10;9.07;;;9.60;26.60;;;;;;5028215;28;20422;-76
2021/03/30 06:55:04;;;;;;;13.20;8.00;;;9.70;26.90;;;;;;5031766;28;20383;-74
2021/03/30 06:57:46;;;;;;;16.52;8.43;;;9.80;28.00;;;;;;5036284;28;20403;-76
2021/03/30 07:00:18;;;;;;;16.85;9.05;;;9.90;25.70;;;;;;5041061;28;20406;-77
2021/03/30 07:02:52;;;;;;;20.70;8.70;;;10.10;24.80;;;;;;5040682;28;20873;-78
2021/03/30 07:05:25;;;;;;;15.90;8.88;;;10.20;23.80;;;;;;5038620;28;20407;-77
2021/03/30 07:07:58;;;;;;;14.27;8.93;;;10.20;23.40;;;;;;5028709;28;20397;-77
2021/03/30 07:10:26;;;;;;;17.70;9.20;;;10.30;23.80;;;;;;5036459;28;20840;-81
2021/03/30 07:12:53;;;;;;;14.80;8.80;;;10.40;23.00;;;;;;5045500;28;20427;-79
2021/03/30 07:15:21;;;;;;;18.23;8.80;;;10.50;22.60;;;;;;5045116;28;20906;-79
2021/03/30 07:18:00;;;;;;;15.27;8.63;;;10.60;22.20;;;;;;5025718;28;20408;-78
2021/03/30 07:20:27;;;;;;;18.85;9.40;;;10.70;22.30;;;;;;5026111;28;20471;-79
2021/03/30 07:22:54;;;;;;;22.90;8.85;;;10.80;22.10;;;;;;5036651;28;20499;-78
2021/03/30 07:25:22;;;;;;;24.83;9.75;;;11.00;22.10;;;;;;5036167;28;20450;-79
2021/03/30 07:27:53;;;;;;;21.27;8.80;;;11.10;20.60;;;;;;5036001;28;20399;-79
2021/03/30 07:30:21;;;;;;;17.92;9.98;;;11.30;20.30;;;;;;5037198;28;20423;-79
2021/03/30 07:33:18;;;;;;;20.63;9.10;;;11.30;20.00;;;;;;5036730;28;20431;-79
2021/03/30 07:35:45;;;;;;;14.55;8.70;;;11.50;19.40;;;;;;5038547;28;20399;-79
2021/03/30 07:38:22;;;;;;;14.30;9.10;;;11.60;19.50;;;;;;5044955;28;20443;-80
2021/03/30 07:40:48;;;;;;;18.40;8.50;;;11.80;18.50;;;;;;5039180;28;20391;-78
2021/03/30 07:43:22;;;;;;;12.20;7.40;;;11.90;19.40;;;;;;5033626;28;20486;-79
2021/03/30 07:45:49;;;;;;;15.77;8.80;;;12.10;19.20;;;;;;5054020;28;20418;-77
2021/03/30 07:48:17;;;;;;;14.98;8.10;;;12.20;19.30;;;;;;5031456;28;20397;-82
2021/03/30 07:50:49;;;;;;;18.50;7.97;;;12.30;18.40;;;;;;5029277;28;20391;-78
2021/03/30 07:53:38;;;;;;;16.97;9.00;;;12.40;18.10;;;;;;5024360;28;20387;-78
2021/03/30 07:56:05;;;;;;;13.88;8.32;;;12.50;17.70;;;;;;5021489;28;20472;-79
2021/03/30 07:58:41;;;;;;;18.75;8.82;;;12.70;16.40;;;;;;5040912;28;20399;-78
2021/03/30 08:01:08;;;;;;;17.77;8.55;;;12.70;16.40;;;;;;5029525;28;20806;-76
2021/03/30 08:03:35;;;;;;;17.15;8.88;;;12.80;15.80;;;;;;5032209;28;20438;-77
2021/03/30 08:06:04;;;;;;;20.45;8.80;;;12.90;15.60;;;;;;5034981;28;20521;-77
2021/03/30 08:08:30;;;;;;;17.38;9.05;;;13.00;15.60;;;;;;5035602;28;20398;-78
2021/03/30 08:10:56;;;;;;;15.55;9.00;;;13.10;16.20;;;;;;5035094;28;20486;-78
2021/03/30 08:13:29;;;;;;;15.80;9.07;;;13.20;15.60;;;;;;5034946;28;20430;-75
2021/03/30 08:15:56;;;;;;;17.20;8.88;;;13.30;14.90;;;;;;5034910;28;20394;-75
2021/03/30 08:18:25;;;;;;;18.00;8.40;;;13.40;15.10;;;;;;5031690;28;20394;-74
2021/03/30 08:20:56;;;;;;;16.33;8.90;;;13.40;14.70;;;;;;5033671;28;20391;-76
2021/03/30 08:23:22;;;;;;;16.35;9.30;;;13.70;15.20;;;;;;5034309;28;20399;-77
2021/03/30 08:25:52;;;;;;;16.13;7.90;;;13.80;13.70;;;;;;5034704;28;20411;-76
2021/03/30 08:28:49;;;;;;;17.48;8.18;;;13.90;13.50;;;;;;5022122;28;20789;-75
2021/03/30 08:31:19;;;;;;;16.73;7.82;;;14.00;14.10;;;;;;5019226;28;20391;-76
2021/03/30 08:33:47;;;;;;;15.80;8.10;;;14.10;12.30;;;;;;5034230;28;20399;-77
2021/03/30 08:36:35;;;;;;;15.05;8.50;;;14.20;12.20;;;;;;5034323;28;20921;-76
2021/03/30 08:39:09;;;;;;;14.85;7.40;;;14.30;13.00;;;;;;5027552;28;20487;-77
2021/03/30 08:41:45;;;;;;;11.57;7.13;;;14.40;13.50;;;;;;5034337;28;20729;-76
2021/03/30 08:44:13;;;;;;;17.08;7.90;;;14.50;12.70;;;;;;5034676;28;20417;-77
2021/03/30 08:46:41;;;;;;;13.30;7.50;;;14.70;13.00;;;;;;5035093;28;20439;-77
2021/03/30 08:49:26;;;;;;;12.13;7.20;;;14.90;13.10;;;;;;5035210;28;20461;-75
2021/03/30 08:52:12;;;;;;;16.15;8.18;;;15.00;11.50;;;;;;5035041;28;20395;-77
2021/03/30 08:54:52;;;;;;;15.85;7.55;;;15.10;10.80;;;;;;5037994;28;20463;-77
2021/03/30 08:57:36;;;;;;;13.55;7.68;;;15.10;10.70;;;;;;5040937;28;20393;-77
2021/03/30 09:00:13;;;;;;;16.55;8.32;;;15.20;10.60;;;;;;5015031;28;20401;-76
2021/03/30 09:02:39;;;;;;;13.98;7.40;;;15.30;10.70;;;;;;5022429;28;20466;-78
2021/03/30 09:05:23;;;;;;;15.85;7.10;;;15.50;9.60;;;;;;5028850;28;20509;-77
2021/03/30 09:07:49;;;;;;;13.52;7.00;;;15.60;10.10;;;;;;5033348;28;20402;-74
2021/03/30 09:10:17;;;;;;;14.80;7.50;;;15.80;10.10;;;;;;5033960;28;20394;-76
2021/03/30 09:12:47;;;;;;;19.35;6.88;;;15.90;9.70;;;;;;5032589;28;20391;-76
2021/03/30 09:15:15;;;;;;;12.70;6.70;;;16.00;8.70;;;;;;5032130;28;20958;-76
2021/03/30 09:17:58;;;;;;;16.98;7.10;;;16.10;8.40;;;;;;5016794;28;20719;-75
2021/03/30 09:20:27;;;;;;;12.13;6.70;;;16.10;9.00;;;;;;5024973;28;20487;-76
2021/03/30 09:22:56;;;;;;;15.57;7.07;;;16.30;9.00;;;;;;5019754;28;20425;-75
2021/03/30 09:25:28;;;;;;;12.82;6.60;;;16.40;7.80;;;;;;5034376;28;20407;-75
2021/03/30 09:27:54;;;;;;;14.10;6.78;;;16.50;7.40;;;;;;5033946;28;20760;-75
2021/03/30 09:30:22;;;;;;;16.95;7.30;;;16.60;7.30;;;;;;5033372;28;20398;-76
2021/03/30 09:32:50;;;;;;;18.58;7.72;;;16.60;7.00;;;;;;5032600;28;20462;-75
2021/03/30 09:35:19;;;;;;;18.30;8.00;;;16.70;7.50;;;;;;5033260;28;20482;-76
2021/03/30 09:37:57;;;;;;;15.60;7.47;;;16.90;7.50;;;;;;5035885;28;20390;-77
2021/03/30 09:40:34;;;;;;;15.65;7.47;;;17.00;7.40;;;;;;5033012;28;20395;-76
2021/03/30 09:43:01;;;;;;;17.75;8.40;;;17.20;7.20;;;;;;5030546;28;20402;-77
2021/03/30 09:45:27;;;;;;;17.48;8.05;;;17.20;6.80;;;;;;5033045;28;20411;-77
2021/03/30 09:47:54;;;;;;;20.83;9.00;;;17.20;6.60;;;;;;5033839;28;20391;-75
2021/03/30 09:50:22;;;;;;;19.50;9.27;;;17.40;6.80;;;;;;5036519;28;20709;-76
2021/03/30 09:52:49;;;;;;;23.02;10.20;;;17.40;6.20;;;;;;5024153;28;20435;-75
2021/03/30 09:55:37;;;;;;;20.40;10.60;;;17.40;6.00;;;;;;5016086;28;20399;-77
2021/03/30 09:58:11;;;;;;;21.08;9.68;;;17.50;6.20;;;;;;5034977;28;20386;-76
2021/03/30 10:00:40;;;;;;;19.35;9.80;;;17.70;6.30;;;;;;5052199;28;20457;-76
2021/03/30 10:03:07;;;;;;;23.25;11.23;;;17.90;6.60;;;;;;5025807;28;20398;-75
2021/03/30 10:05:35;;;;;;;26.43;12.07;;;18.00;6.30;;;;;;5033980;28;20775;-76
2021/03/30 10:08:02;;;;;;;22.08;12.20;;;18.00;6.30;;;;;;5033927;28;20415;-76
2021/03/30 10:10:59;;;;;;;26.80;13.43;;;18.00;6.40;;;;;;5033596;28;20816;-75
2021/03/30 10:13:30;;;;;;;25.80;12.30;;;18.00;5.50;;;;;;5032303;28;20807;-75
2021/03/30 10:16:00;;;;;;;29.55;14.90;;;18.20;4.60;;;;;;5032253;28;20399;-76
2021/03/30 10:18:27;;;;;;;32.17;15.88;;;18.30;4.20;;;;;;5031422;28;20422;-76
2021/03/30 10:20:58;;;;;;;30.75;14.30;;;18.30;3.90;;;;;;5032384;28;20410;-77
2021/03/30 10:23:32;;;;;;;26.80;14.10;;;18.40;4.20;;;;;;5031763;28;21008;-74
2021/03/30 10:26:08;;;;;;;31.48;15.18;;;18.50;3.80;;;;;;5030967;28;20411;-76
2021/03/30 10:28:34;;;;;;;30.13;16.25;;;18.50;3.70;;;;;;5030360;28;20958;-76
2021/03/30 10:31:06;;;;;;;34.45;17.33;;;18.60;3.60;;;;;;5032720;28;20407;-74
2021/03/30 10:33:38;;;;;;;36.15;18.63;;;18.60;3.00;;;;;;5031785;28;20395;-73
2021/03/30 10:36:05;;;;;;;36.10;18.83;;;18.70;3.50;;;;;;5030528;28;21022;-74
2021/03/30 10:38:30;;;;;;;33.08;17.65;;;18.80;3.20;;;;;;5030768;28;20753;-76
2021/03/30 10:41:12;;;;;;;36.35;18.25;;;18.80;3.00;;;;;;5032358;28;20402;-75
2021/03/30 10:43:38;;;;;;;41.85;20.98;;;18.80;2.60;;;;;;5032758;28;20471;-76
2021/03/30 10:46:21;;;;;;;37.10;19.50;;;18.70;2.40;;;;;;5023545;28;20416;-76
2021/03/30 10:49:16;;;;;;;40.78;19.85;;;18.80;2.90;;;;;;5031659;28;20383;-76
2021/03/30 10:51:45;;;;;;;34.47;17.20;;;18.90;2.50;;;;;;5022573;28;20434;-76
2021/03/30 10:54:14;;;;;;;36.67;18.15;;;19.10;2.90;;;;;;5031961;28;20387;-76
2021/03/30 10:56:41;;;;;;;37.72;17.88;;;19.20;2.50;;;;;;5031324;28;20395;-75
2021/03/30 10:59:12;;;;;;;37.40;18.15;;;19.20;1.60;;;;;;5031344;28;20394;-76
2021/03/30 11:01:38;;;;;;;34.95;17.92;;;19.30;1.80;;;;;;5031013;28;20418;-75
2021/03/30 11:04:07;;;;;;;34.03;17.70;;;19.40;1.20;;;;;;5032370;28;20387;-73
2021/03/30 11:06:33;;;;;;;33.43;17.63;;;19.60;1.90;;;;;;5032084;28;20542;-75
2021/03/30 11:08:59;;;;;;;41.00;18.47;;;19.60;1.60;;;;;;5031788;28;20407;-77
2021/03/30 11:11:25;;;;;;;36.15;17.95;;;19.50;1.00;;;;;;5031735;28;20398;-75
2021/03/30 11:13:51;;;;;;;34.63;17.67;;;19.50;1.00;;;;;;5030771;28;20399;-75
2021/03/30 11:16:17;;;;;;;34.65;17.58;;;19.40;1.00;;;;;;5031461;28;20402;-76
2021/03/30 11:18:42;;;;;;;36.63;18.07;;;19.50;1.70;;;;;;5031525;28;20934;-75
2021/03/30 11:21:08;;;;;;;37.53;18.20;;;19.50;1.10;;;;;;5030637;28;20753;-75
2021/03/30 11:23:34;;;;;;;33.70;18.30;;;19.70;1.10;;;;;;5031133;28;20397;-75
2021/03/30 11:26:00;;;;;;;34.80;17.58;;;19.70;1.00;;;;;;5029889;28;20406;-76
2021/03/30 11:28:30;;;;;;;39.30;19.20;;;19.80;1.00;;;;;;5020971;28;20771;-75
2021/03/30 11:31:00;;;;;;;34.63;18.23;;;19.80;1.00;;;;;;5031267;28;20387;-76
2021/03/30 11:35:58;;;;;;;35.65;18.95;;;19.80;1.00;;;;;;5027283;28;20490;-75
2021/03/30 11:38:24;;;;;;;32.35;16.17;;;19.90;1.00;;;;;;5029347;28;20391;-78
2021/03/30 11:40:49;;;;;;;29.57;15.07;;;20.00;1.00;;;;;;5031563;28;20524;-75
2021/03/30 11:43:16;;;;;;;30.70;15.20;;;20.10;1.00;;;;;;5030428;28;20399;-76
2021/03/30 11:45:42;;;;;;;32.80;15.75;;;20.30;1.00;;;;;;5031268;28;20429;-76
2021/03/30 11:48:10;;;;;;;33.30;15.52;;;20.40;1.00;;;;;;5030557;28;20398;-77
2021/03/30 11:50:36;;;;;;;33.97;17.08;;;20.40;1.00;;;;;;5030709;28;20423;-76
2021/03/30 11:53:02;;;;;;;34.70;16.38;;;20.50;1.00;;;;;;5031832;28;20466;-76
2021/03/30 11:55:28;;;;;;;29.95;15.82;;;20.50;1.00;;;;;;5030901;28;20403;-74
2021/03/30 11:57:54;;;;;;;26.48;13.82;;;20.60;1.00;;;;;;5030349;28;20469;-75
2021/03/30 12:00:21;;;;;;;28.52;13.80;;;20.60;1.00;;;;;;5032618;28;20485;-77
2021/03/30 12:02:47;;;;;;;35.08;14.85;;;20.70;1.00;;;;;;5033061;28;20954;-75
2021/03/30 12:05:13;;;;;;;30.93;15.07;;;20.70;1.00;;;;;;5037066;28;20415;-76
2021/03/30 12:07:39;;;;;;;28.45;14.55;;;20.70;1.00;;;;;;5043253;28;20901;-73
2021/03/30 12:10:06;;;;;;;30.97;15.20;;;20.70;1.00;;;;;;5042439;28;20458;-74
2021/03/30 12:12:32;;;;;;;31.15;13.57;;;20.70;1.00;;;;;;5044998;28;20387;-76
2021/03/30 12:14:58;;;;;;;27.23;12.63;;;20.90;1.00;;;;;;5045687;28;20395;-76
2021/03/30 12:17:23;;;;;;;29.65;12.68;;;20.90;1.00;;;;;;5047391;28;20526;-74
2021/03/30 12:19:49;;;;;;;26.70;12.13;;;21.00;1.00;;;;;;5045574;28;20405;-76
2021/03/30 12:22:14;;;;;;;26.75;13.65;;;21.10;1.00;;;;;;5033900;28;20399;-75
2021/03/30 12:24:40;;;;;;;29.05;13.88;;;21.00;1.00;;;;;;5028672;28;20444;-76
2021/03/30 12:27:10;;;;;;;29.20;13.43;;;21.00;1.00;;;;;;5030012;28;20398;-76
2021/03/30 12:29:37;;;;;;;30.17;13.20;;;21.00;1.00;;;;;;5032768;28;20415;-76
2021/03/30 12:32:03;;;;;;;21.40;10.90;;;21.10;1.00;;;;;;5012528;28;20461;-77
2021/03/30 12:34:29;;;;;;;23.50;11.47;;;21.20;1.00;;;;;;5025823;28;20541;-76
2021/03/30 12:36:54;;;;;;;23.15;10.57;;;21.30;1.00;;;;;;5031258;28;20394;-76
2021/03/30 12:39:20;;;;;;;23.55;11.00;;;21.40;1.00;;;;;;5030702;28;20483;-77
2021/03/30 12:41:46;;;;;;;19.70;10.48;;;21.40;1.00;;;;;;5014654;28;20785;-76
2021/03/30 12:44:11;;;;;;;17.23;9.53;;;21.40;1.00;;;;;;5011091;28;20504;-76
2021/03/30 12:46:37;;;;;;;19.33;9.90;;;21.50;1.00;;;;;;5009685;28;20395;-77
2021/03/30 12:49:03;;;;;;;19.60;8.95;;;21.60;1.00;;;;;;5013655;28;20391;-77
2021/03/30 12:51:29;;;;;;;19.27;10.23;;;21.70;1.00;;;;;;5020800;28;20408;-76
2021/03/30 12:53:57;;;;;;;20.80;10.00;;;21.90;1.00;;;;;;5014881;28;20443;-76
2021/03/30 12:56:23;;;;;;;19.07;9.63;;;21.90;1.00;;;;;;5015116;28;20416;-75
2021/03/30 12:58:48;;;;;;;17.10;9.50;;;22.00;1.00;;;;;;5043826;28;20782;-74